Time;durP1;ratioP1;P1;durP2;ratioP2;P2;SDS_P1;SDS_P2;PMS_P1;PMS_P2;Temp;Humidity;BMP_temperature;BMP_pressure;BME280_temperature;BME280_humidity;BME280_pressure;Samples;Min_cycle;Max_cycle;Signal;HPM_P1;HPM_P2
2023/07/31 00:04:30;;;;;;;;;;;;;;;22.43;50.45;95827.41;10438357;28;2040;-70
2023/07/31 00:09:31;;;;;;;;;;;;;;;22.43;50.45;95827.41;10439629;28;1941;-71
2023/07/31 00:14:31;;;;;;;;;;;;;;;22.44;50.46;95815.75;10438433;28;1882;-71
2023/07/31 00:19:31;;;;;;;;;;;;;;;22.43;50.37;95821.34;10440207;28;1905;-70
2023/07/31 00:24:31;;;;;;;;;;;;;;;22.43;50.61;95816.06;10438684;28;1906;-70
2023/07/31 00:29:32;;;;;;;;;;;;;;;22.43;50.36;95816.84;10432199;28;1924;-72
2023/07/31 00:34:32;;;;;;;;;;;;;;;22.44;50.54;95809.72;10451331;28;1852;-70
2023/07/31 00:39:33;;;;;;;;;;;;;;;22.44;50.47;95815.00;10449307;28;4496;-71
2023/07/31 00:44:33;;;;;;;;;;;;;;;22.42;50.34;95802.06;10453844;28;1958;-71
2023/07/31 00:49:34;;;;;;;;;;;;;;;22.43;50.26;95797.56;10449808;28;2421;-70
2023/07/31 00:54:34;;;;;;;;;;;;;;;22.43;50.38;95801.00;10475158;28;1973;-70
2023/07/31 00:59:34;;;;;;;;;;;;;;;22.43;50.31;95792.28;10437623;28;2066;-70
2023/07/31 01:04:34;;;;;;;;;;;;;;;22.44;50.38;95801.78;10448950;28;1902;-70
2023/07/31 01:09:45;;;;;;;;;;;;;;;22.42;50.41;95786.22;10443013;28;1955;-70
2023/07/31 01:15:00;;;;;;;;;;;;;;;22.43;50.66;95790.44;10477219;28;2045;-71
2023/07/31 01:20:02;;;;;;;;;;;;;;;22.43;50.36;95779.88;10450552;28;2137;-70
2023/07/31 01:25:05;;;;;;;;;;;;;;;22.44;50.25;95786.72;10446874;28;1909;-70
2023/07/31 01:30:14;;;;;;;;;;;;;;;22.43;50.37;95774.59;10472034;28;1936;-70
2023/07/31 01:35:14;;;;;;;;;;;;;;;22.44;50.03;95767.47;10444339;28;1930;-70
2023/07/31 01:40:14;;;;;;;;;;;;;;;22.43;49.90;95771.94;10456727;28;1915;-70
2023/07/31 01:45:15;;;;;;;;;;;;;;;22.43;50.32;95764.03;10442019;28;2400;-69
2023/07/31 01:50:15;;;;;;;;;;;;;;;22.43;49.95;95761.38;10442431;28;1890;-68
2023/07/31 01:55:15;;;;;;;;;;;;;;;22.43;50.11;95757.94;10448795;28;2182;-68
2023/07/31 02:00:16;;;;;;;;;;;;;;;22.43;49.97;95760.59;10455129;28;1938;-69
2023/07/31 02:05:16;;;;;;;;;;;;;;;22.43;49.90;95765.88;10445531;28;2070;-69
2023/07/31 02:10:16;;;;;;;;;;;;;;;22.43;50.16;95757.94;10451803;28;1941;-69
2023/07/31 02:15:16;;;;;;;;;;;;;;;22.42;49.74;95749.22;10442836;28;1898;-69
2023/07/31 02:20:17;;;;;;;;;;;;;;;22.42;49.88;95746.59;10439332;28;2047;-69
2023/07/31 02:25:17;;;;;;;;;;;;;;;22.43;49.72;95740.25;10449940;28;1971;-70
2023/07/31 02:30:17;;;;;;;;;;;;;;;22.42;49.86;95736.03;10451929;28;1893;-69
2023/07/31 02:35:18;;;;;;;;;;;;;;;22.41;49.98;95731.81;10442784;28;1963;-70
2023/07/31 02:40:18;;;;;;;;;;;;;;;22.44;49.74;95730.47;10448228;28;4514;-68
2023/07/31 02:45:19;;;;;;;;;;;;;;;22.42;49.77;95717.53;10448699;28;2400;-70
2023/07/31 02:50:19;;;;;;;;;;;;;;;22.42;49.66;95719.41;10451548;28;1994;-71
2023/07/31 02:55:19;;;;;;;;;;;;;;;22.42;49.89;95709.63;10444388;28;1877;-75
2023/07/31 03:00:20;;;;;;;;;;;;;;;22.42;49.59;95711.50;10437882;28;1965;-72
2023/07/31 03:05:20;;;;;;;;;;;;;;;22.42;49.53;95709.63;10446423;28;1945;-69
2023/07/31 03:10:20;;;;;;;;;;;;;;;22.41;49.79;95705.41;10477187;28;1888;-70
2023/07/31 03:15:20;;;;;;;;;;;;;;;22.41;49.69;95700.13;10445520;28;2364;-71
2023/07/31 03:20:21;;;;;;;;;;;;;;;22.40;49.53;95701.19;10442570;28;1884;-70
2023/07/31 03:25:21;;;;;;;;;;;;;;;22.41;49.23;95694.84;10435068;28;1901;-69
2023/07/31 03:30:21;;;;;;;;;;;;;;;22.41;49.40;95705.41;10440984;28;1886;-69
2023/07/31 03:35:21;;;;;;;;;;;;;;;22.40;48.97;95719.69;10443158;28;1897;-69
2023/07/31 03:40:22;;;;;;;;;;;;;;;22.39;48.93;95720.75;10442681;28;4510;-70
2023/07/31 03:45:22;;;;;;;;;;;;;;;22.40;49.02;95721.56;10443948;28;2116;-69
2023/07/31 03:50:22;;;;;;;;;;;;;;;22.39;49.35;95712.03;10437482;28;1909;-69
2023/07/31 03:55:23;;;;;;;;;;;;;;;22.39;49.06;95717.34;10445817;28;1831;-69
2023/07/31 04:00:23;;;;;;;;;;;;;;;22.40;49.03;95714.41;10469168;28;2123;-71
2023/07/31 04:05:23;;;;;;;;;;;;;;;22.39;49.32;95718.13;10441329;28;1984;-70
2023/07/31 04:10:24;;;;;;;;;;;;;;;22.40;49.02;95709.13;10447368;28;1861;-69
2023/07/31 04:15:24;;;;;;;;;;;;;;;22.40;48.98;95703.06;10446475;28;1904;-69
2023/07/31 04:20:24;;;;;;;;;;;;;;;22.40;48.99;95709.13;10452503;28;1838;-70
2023/07/31 04:25:24;;;;;;;;;;;;;;;22.40;49.28;95703.06;10444887;28;2130;-71
2023/07/31 04:30:25;;;;;;;;;;;;;;;22.41;49.34;95705.41;10443261;28;1882;-69
2023/07/31 04:35:25;;;;;;;;;;;;;;;22.41;49.09;95704.63;10448955;28;2249;-69
2023/07/31 04:40:25;;;;;;;;;;;;;;;22.41;49.19;95705.41;10452716;28;4521;-69
2023/07/31 04:45:26;;;;;;;;;;;;;;;22.42;49.12;95700.94;10449689;28;1906;-69
2023/07/31 04:50:26;;;;;;;;;;;;;;;22.42;49.32;95706.22;10448375;28;2195;-69
2023/07/31 04:55:26;;;;;;;;;;;;;;;22.42;49.57;95699.06;10446053;28;1857;-67
2023/07/31 05:00:27;;;;;;;;;;;;;;;22.42;49.33;95690.34;10445998;28;1850;-68
2023/07/31 05:05:27;;;;;;;;;;;;;;;22.43;49.15;95700.63;10447199;28;1996;-74
2023/07/31 05:10:27;;;;;;;;;;;;;;;22.44;49.37;95693.50;10448498;28;1938;-75
2023/07/31 05:15:28;;;;;;;;;;;;;;;22.43;49.55;95697.19;10476561;28;1930;-70
2023/07/31 05:20:28;;;;;;;;;;;;;;;22.46;49.65;95699.28;10444955;28;1953;-67
2023/07/31 05:25:28;;;;;;;;;;;;;;;22.46;49.73;95692.13;10448368;28;1898;-68
2023/07/31 05:30:31;;;;;;;;;;;;;;;22.47;49.85;95688.41;10448693;28;2233;-72
2023/07/31 05:35:32;;;;;;;;;;;;;;;22.48;49.93;95687.34;10451651;28;1923;-70
2023/07/31 05:40:32;;;;;;;;;;;;;;;22.49;49.96;95693.41;10448214;28;4528;-70
2023/07/31 05:45:32;;;;;;;;;;;;;;;22.50;49.78;95687.06;10443734;28;1948;-70
2023/07/31 05:50:33;;;;;;;;;;;;;;;22.50;49.96;95681.78;10453339;28;1944;-70
2023/07/31 05:55:33;;;;;;;;;;;;;;;22.51;49.92;95684.13;10470432;28;1893;-69
2023/07/31 06:00:33;;;;;;;;;;;;;;;22.51;50.09;95686.78;10457558;28;2026;-70
2023/07/31 06:05:34;;;;;;;;;;;;;;;22.51;50.24;95692.06;10444471;28;2202;-70
2023/07/31 06:10:34;;;;;;;;;;;;;;;22.51;49.91;95686.78;10447332;28;2128;-70
2023/07/31 06:15:35;;;;;;;;;;;;;;;22.52;50.02;95684.94;10475679;28;1877;-70
2023/07/31 06:20:35;;;;;;;;;;;;;;;22.51;50.21;95699.97;10451475;28;1941;-70
2023/07/31 06:25:35;;;;;;;;;;;;;;;22.51;50.05;95699.19;10439263;28;1979;-70
2023/07/31 06:30:36;;;;;;;;;;;;;;;22.50;50.35;95693.13;10443681;28;1929;-70
2023/07/31 06:35:36;;;;;;;;;;;;;;;22.52;50.40;95708.69;10475223;28;1877;-70
2023/07/31 06:40:36;;;;;;;;;;;;;;;22.51;50.24;95694.69;10481952;28;2101;-69
2023/07/31 06:45:36;;;;;;;;;;;;;;;22.52;50.27;95701.53;10441088;28;1902;-71
2023/07/31 06:50:37;;;;;;;;;;;;;;;22.51;50.08;95693.91;10473674;28;1919;-70
2023/07/31 06:55:37;;;;;;;;;;;;;;;22.51;50.31;95688.63;10454858;28;1854;-69
2023/07/31 07:00:37;;;;;;;;;;;;;;;22.51;50.35;95681.50;10448729;28;1939;-70
2023/07/31 07:05:38;;;;;;;;;;;;;;;22.52;50.32;95674.34;10447669;28;1969;-70
2023/07/31 07:10:38;;;;;;;;;;;;;;;22.52;50.08;95679.66;10437899;28;1869;-69
2023/07/31 07:15:38;;;;;;;;;;;;;;;22.52;50.45;95690.22;10456443;28;1889;-69
2023/07/31 07:20:39;;;;;;;;;;;;;;;22.51;50.17;95689.41;10442384;28;2004;-69
2023/07/31 07:25:39;;;;;;;;;;;;;;;22.51;50.15;95689.41;10446362;28;2002;-69
2023/07/31 07:30:39;;;;;;;;;;;;;;;22.52;50.12;95685.69;10442735;28;1885;-70
2023/07/31 07:35:40;;;;;;;;;;;;;;;22.52;50.40;95677.00;10444071;28;2033;-69
2023/07/31 07:40:40;;;;;;;;;;;;;;;22.51;50.19;95673.56;10480697;28;1932;-71
2023/07/31 07:45:40;;;;;;;;;;;;;;;22.52;50.18;95664.56;10451598;28;2053;-70
2023/07/31 07:50:41;;;;;;;;;;;;;;;22.53;50.11;95666.13;10450989;28;1889;-69
2023/07/31 07:55:41;;;;;;;;;;;;;;;22.52;50.40;95654.00;10452966;28;1949;-70
2023/07/31 08:00:41;;;;;;;;;;;;;;;22.53;50.15;95654.78;10475778;28;1940;-69
2023/07/31 08:05:42;;;;;;;;;;;;;;;22.53;50.45;95645.00;10446161;28;2100;-70
2023/07/31 08:10:42;;;;;;;;;;;;;;;22.53;50.05;95647.66;10450375;28;1996;-71
2023/07/31 08:15:42;;;;;;;;;;;;;;;22.53;50.19;95658.22;10449038;28;1949;-69
2023/07/31 08:20:43;;;;;;;;;;;;;;;22.55;50.15;95663.19;10485957;28;2266;-69
2023/07/31 08:25:44;;;;;;;;;;;;;;;22.53;50.44;95652.94;10445467;28;1993;-69
2023/07/31 08:30:44;;;;;;;;;;;;;;;22.54;50.17;95659.81;10449802;28;2033;-69
2023/07/31 08:35:45;;;;;;;;;;;;;;;22.55;50.22;95648.16;10448886;28;2202;-70
2023/07/31 08:40:45;;;;;;;;;;;;;;;22.55;50.51;95652.63;10452666;28;4835;-69
2023/07/31 08:45:45;;;;;;;;;;;;;;;22.55;50.49;95652.63;10442702;28;1973;-70
2023/07/31 08:50:45;;;;;;;;;;;;;;;22.55;50.56;95652.63;10479794;28;1965;-69
2023/07/31 08:55:46;;;;;;;;;;;;;;;22.55;50.21;95650.00;10443152;28;2077;-69
2023/07/31 09:00:46;;;;;;;;;;;;;;;22.55;50.48;95642.88;10439955;28;1901;-70
2023/07/31 09:05:46;;;;;;;;;;;;;;;22.55;50.54;95636.78;10442932;28;1906;-69
2023/07/31 09:10:47;;;;;;;;;;;;;;;22.55;50.18;95648.16;10448924;28;1881;-70
2023/07/31 09:15:47;;;;;;;;;;;;;;;22.55;50.49;95637.56;10468596;28;2335;-69
2023/07/31 09:21:00;;;;;;;;;;;;;;;22.56;50.51;95635.72;10447747;28;1877;-70
2023/07/31 09:26:00;;;;;;;;;;;;;;;22.56;50.26;95631.22;10438866;28;1988;-70
2023/07/31 09:31:00;;;;;;;;;;;;;;;22.57;50.23;95619.59;10456477;28;1869;-70
2023/07/31 09:36:01;;;;;;;;;;;;;;;22.57;50.14;95627.50;10405404;28;1472338;-70
2023/07/31 09:41:01;;;;;;;;;;;;;;;22.57;50.36;95624.88;10449219;28;1885;-70
2023/07/31 09:46:01;;;;;;;;;;;;;;;22.57;50.47;95622.22;10446884;28;2134;-69
2023/07/31 09:51:02;;;;;;;;;;;;;;;22.58;50.52;95617.75;10454039;28;1889;-71
2023/07/31 09:56:02;;;;;;;;;;;;;;;22.56;50.52;95610.09;10473925;28;1931;-70
2023/07/31 10:01:03;;;;;;;;;;;;;;;22.58;50.47;95602.69;10450428;28;1890;-69
2023/07/31 10:06:03;;;;;;;;;;;;;;;22.59;50.26;95591.03;10444139;28;1940;-71
2023/07/31 10:11:03;;;;;;;;;;;;;;;22.58;50.30;95578.94;10454345;28;1868;-69
2023/07/31 10:16:04;;;;;;;;;;;;;;;22.59;50.27;95577.03;10452418;28;2712;-71
2023/07/31 10:21:04;;;;;;;;;;;;;;;22.60;50.53;95560.94;10441280;28;1979;-69
2023/07/31 10:26:06;;;;;;;;;;;;;;;22.61;50.40;95556.41;10450711;28;1910;-71
2023/07/31 10:31:06;;;;;;;;;;;;;;;22.60;50.48;95547.72;10443968;28;1973;-69
2023/07/31 10:36:13;;;;;;;;;;;;;;;22.61;50.48;95546.63;10440475;28;5186;-70
2023/07/31 10:41:13;;;;;;;;;;;;;;;22.61;50.34;95546.63;10474285;28;1842;-70
2023/07/31 10:46:14;;;;;;;;;;;;;;;22.62;50.24;95550.06;10439103;28;1981;-70
2023/07/31 10:51:15;;;;;;;;;;;;;;;22.63;50.38;95536.56;10440248;28;1959;-71
2023/07/31 10:56:19;;;;;;;;;;;;;;;22.62;50.21;95542.94;10442393;28;1895;-71
2023/07/31 11:01:19;;;;;;;;;;;;;;;22.63;50.31;95533.13;10451753;28;2106;-70
2023/07/31 11:06:19;;;;;;;;;;;;;;;22.64;50.32;95522.28;10444872;28;1948;-72
2023/07/31 11:11:20;;;;;;;;;;;;;;;22.64;50.50;95522.28;10443610;28;2411;-72
2023/07/31 11:16:20;;;;;;;;;;;;;;;22.67;50.48;95520.13;10481003;28;1913;-71
2023/07/31 11:21:24;;;;;;;;;;;;;;;22.67;50.52;95518.25;10455560;28;1998;-71
2023/07/31 11:26:24;;;;;;;;;;;;;;;22.67;50.40;95516.41;10442371;28;1910;-69
2023/07/31 11:31:24;;;;;;;;;;;;;;;22.69;50.51;95502.13;10440601;28;2090;-69
2023/07/31 11:36:25;;;;;;;;;;;;;;;22.69;50.48;95491.56;10441657;28;4692;-70
2023/07/31 11:41:25;;;;;;;;;;;;;;;22.70;50.35;95485.19;10450332;28;1858;-70
2023/07/31 11:46:25;;;;;;;;;;;;;;;22.70;50.56;95491.25;10439286;28;2008;-70
2023/07/31 11:51:26;;;;;;;;;;;;;;;22.71;50.64;95476.97;10440159;28;1897;-69
2023/07/31 11:56:27;;;;;;;;;;;;;;;22.72;50.68;95462.69;10445903;28;2123;-69
2023/07/31 12:01:30;;;;;;;;;;;;;;;22.72;50.41;95451.31;10441917;28;1921;-70
2023/07/31 12:06:34;;;;;;;;;;;;;;;22.72;50.40;95446.81;10469787;28;2249;-69
2023/07/31 12:11:44;;;;;;;;;;;;;;;22.74;50.59;95443.88;10445238;28;2030;-70
2023/07/31 12:16:44;;;;;;;;;;;;;;;22.74;50.80;95426.19;10440017;28;2075;-69
2023/07/31 12:21:45;;;;;;;;;;;;;;;22.75;50.69;95416.41;10442754;28;1806;-70
2023/07/31 12:26:46;;;;;;;;;;;;;;;22.75;50.71;95419.81;10476539;28;1995;-70
2023/07/31 12:31:46;;;;;;;;;;;;;;;22.75;50.64;95403.19;10452544;28;1905;-71
2023/07/31 12:36:48;;;;;;;;;;;;;;;22.76;50.57;95413.44;10456763;28;4598;-70
2023/07/31 12:41:49;;;;;;;;;;;;;;;22.78;50.83;95398.09;10447192;28;1877;-69
2023/07/31 12:46:49;;;;;;;;;;;;;;;22.78;50.50;95397.28;10455085;28;1910;-69
2023/07/31 12:51:49;;;;;;;;;;;;;;;22.79;50.77;95391.75;10448765;28;2165;-69
2023/07/31 12:56:49;;;;;;;;;;;;;;;22.81;50.62;95380.88;10449373;28;2041;-69
2023/07/31 13:01:50;;;;;;;;;;;;;;;22.81;50.93;95380.88;10449348;28;1958;-71
2023/07/31 13:06:50;;;;;;;;;;;;;;;22.82;50.89;95377.13;10448837;28;1977;-70
2023/07/31 13:11:50;;;;;;;;;;;;;;;22.83;51.05;95370.78;10447286;28;1891;-70
2023/07/31 13:16:51;;;;;;;;;;;;;;;22.84;51.19;95370.47;10455341;28;1893;-70
2023/07/31 13:21:51;;;;;;;;;;;;;;;22.86;51.21;95370.16;10463533;28;1817;-72
2023/07/31 13:26:51;;;;;;;;;;;;;;;22.86;51.71;95362.25;10450134;28;2014;-70
2023/07/31 13:31:52;;;;;;;;;;;;;;;22.87;51.73;95354.03;10450763;28;1850;-71
2023/07/31 13:36:53;;;;;;;;;;;;;;;22.87;51.72;95346.09;10452350;28;4489;-70
2023/07/31 13:41:54;;;;;;;;;;;;;;;22.88;51.66;95338.94;10452230;28;1687;-69
2023/07/31 13:46:55;;;;;;;;;;;;;;;22.88;51.73;95333.66;10451300;28;1991;-69
2023/07/31 13:51:55;;;;;;;;;;;;;;;22.88;51.93;95323.88;10450494;28;2096;-70
2023/07/31 13:56:55;;;;;;;;;;;;;;;22.89;51.98;95324.66;10450002;28;2595;-71
2023/07/31 14:01:56;;;;;;;;;;;;;;;22.90;52.18;95313.00;10450424;28;2082;-71
2023/07/31 14:06:56;;;;;;;;;;;;;;;22.91;51.97;95311.94;10445043;28;1973;-72
2023/07/31 14:11:56;;;;;;;;;;;;;;;22.91;51.94;95311.94;10448614;28;1920;-67
2023/07/31 14:16:56;;;;;;;;;;;;;;;22.90;51.65;95316.44;10452468;28;1878;-68
2023/07/31 14:21:58;;;;;;;;;;;;;;;22.91;51.81;95314.56;10453905;28;1918;-68
2023/07/31 14:26:58;;;;;;;;;;;;;;;22.91;51.41;95311.94;10449675;28;1910;-67
2023/07/31 14:31:59;;;;;;;;;;;;;;;22.90;51.47;95313.78;10446472;28;1882;-68
2023/07/31 14:36:59;;;;;;;;;;;;;;;22.91;51.46;95304.00;10445336;28;4663;-68
2023/07/31 14:42:00;;;;;;;;;;;;;;;22.90;51.38;95300.56;10445164;28;2045;-67
2023/07/31 14:47:00;;;;;;;;;;;;;;;22.91;51.53;95301.34;10452642;28;1914;-68
2023/07/31 14:52:01;;;;;;;;;;;;;;;22.90;51.54;95295.28;10477818;28;1944;-67
2023/07/31 14:57:01;;;;;;;;;;;;;;;22.91;51.19;95301.34;10439291;28;2348;-68
2023/07/31 15:02:02;;;;;;;;;;;;;;;22.92;51.23;95294.97;10447107;28;1981;-67
2023/07/31 15:07:02;;;;;;;;;;;;;;;22.91;51.15;95290.78;10443435;28;2156;-67
2023/07/31 15:12:03;;;;;;;;;;;;;;;22.92;51.12;95300.25;10449593;28;1893;-68
2023/07/31 15:17:03;;;;;;;;;;;;;;;22.91;51.13;95293.44;10442323;28;2060;-68
2023/07/31 15:22:03;;;;;;;;;;;;;;;22.90;51.40;95295.28;10441419;28;2108;-68
2023/07/31 15:27:04;;;;;;;;;;;;;;;22.91;51.38;95296.84;10436119;28;1993;-67
2023/07/31 15:32:04;;;;;;;;;;;;;;;22.89;51.08;95291.09;10439919;28;1830;-67
2023/07/31 15:37:05;;;;;;;;;;;;;;;22.90;51.17;95294.50;10472933;28;4572;-68
2023/07/31 15:42:05;;;;;;;;;;;;;;;22.90;50.97;95289.22;10442738;28;1854;-69
2023/07/31 15:47:05;;;;;;;;;;;;;;;22.89;50.89;95296.38;10438290;28;1969;-67
2023/07/31 15:52:07;;;;;;;;;;;;;;;22.89;50.92;95291.09;10438904;28;2291;-68
2023/07/31 15:57:08;;;;;;;;;;;;;;;22.89;50.92;95290.31;10437639;28;1913;-69
2023/07/31 16:02:08;;;;;;;;;;;;;;;22.89;51.06;95291.09;10443127;28;2090;-68
2023/07/31 16:07:08;;;;;;;;;;;;;;;22.90;50.90;95286.56;10452592;28;1975;-68
2023/07/31 16:12:10;;;;;;;;;;;;;;;22.90;50.75;95271.50;10442692;28;1893;-68
2023/07/31 16:17:10;;;;;;;;;;;;;;;22.89;51.01;95267.31;10442634;28;1968;-68
2023/07/31 16:22:10;;;;;;;;;;;;;;;22.90;50.61;95270.72;10448686;28;1885;-67
2023/07/31 16:27:11;;;;;;;;;;;;;;;22.88;50.59;95254.38;10445314;28;1906;-68
2023/07/31 16:32:11;;;;;;;;;;;;;;;22.89;50.44;95269.16;10445503;28;2077;-68
2023/07/31 16:37:11;;;;;;;;;;;;;;;22.90;50.60;95278.63;10443788;28;4545;-67
2023/07/31 16:42:12;;;;;;;;;;;;;;;22.88;50.45;95264.94;10452251;28;2019;-66
2023/07/31 16:47:12;;;;;;;;;;;;;;;22.89;50.50;95272.59;10456824;28;1950;-67
2023/07/31 16:52:12;;;;;;;;;;;;;;;22.89;50.51;95271.81;10442632;28;1849;-67
2023/07/31 16:57:12;;;;;;;;;;;;;;;22.88;50.75;95259.66;10448790;28;1881;-66
2023/07/31 17:02:13;;;;;;;;;;;;;;;22.86;49.81;95259.97;10452860;28;2084;-67
2023/07/31 17:07:13;;;;;;;;;;;;;;;22.79;49.20;95261.47;10456054;28;1910;-66
2023/07/31 17:12:13;;;;;;;;;;;;;;;22.76;48.80;95246.19;10476199;28;2056;-66
2023/07/31 17:17:14;;;;;;;;;;;;;;;22.71;48.53;95246.31;10446886;28;2019;-66
2023/07/31 17:22:14;;;;;;;;;;;;;;;22.71;48.57;95246.31;10453049;28;1674;-66
2023/07/31 17:27:14;;;;;;;;;;;;;;;22.65;48.30;95243.78;10450384;28;2192;-66
2023/07/31 17:32:14;;;;;;;;;;;;;;;22.64;48.22;95236.94;10455233;28;1866;-66
2023/07/31 17:37:15;;;;;;;;;;;;;;;22.63;48.02;95239.88;10452384;28;4395;-65
2023/07/31 17:42:15;;;;;;;;;;;;;;;22.55;47.97;95235.28;10457217;28;2175;-66
2023/07/31 17:47:15;;;;;;;;;;;;;;;22.57;47.87;95225.19;10447041;28;2239;-66
2023/07/31 17:52:15;;;;;;;;;;;;;;;22.57;47.72;95219.91;10452196;28;1889;-67
2023/07/31 17:57:16;;;;;;;;;;;;;;;22.54;47.68;95213.38;10443251;28;1897;-66
2023/07/31 18:02:16;;;;;;;;;;;;;;;22.54;47.85;95196.75;10450911;28;1908;-65
2023/07/31 18:07:16;;;;;;;;;;;;;;;22.54;47.85;95194.88;10445233;28;2090;-65
2023/07/31 18:12:17;;;;;;;;;;;;;;;22.50;47.66;95201.81;10442309;28;2037;-65
2023/07/31 18:17:17;;;;;;;;;;;;;;;22.51;47.62;95195.47;10450307;28;2002;-66
2023/07/31 18:22:17;;;;;;;;;;;;;;;22.52;47.92;95204.19;10444332;28;1974;-66
2023/07/31 18:27:20;;;;;;;;;;;;;;;22.50;47.96;95191.25;10434080;28;1924;-65
2023/07/31 18:32:20;;;;;;;;;;;;;;;22.50;47.91;95193.91;10446931;28;1897;-66
2023/07/31 18:37:21;;;;;;;;;;;;;;;22.49;47.64;95181.78;10440651;28;1893;-66
2023/07/31 18:42:21;;;;;;;;;;;;;;;22.47;46.88;95180.50;10442832;28;2407;-66
2023/07/31 18:47:22;;;;;;;;;;;;;;;22.41;46.98;95176.44;10441886;28;1874;-66
2023/07/31 18:52:22;;;;;;;;;;;;;;;22.37;46.58;95176.25;10440224;28;1878;-66
2023/07/31 18:57:22;;;;;;;;;;;;;;;22.33;46.45;95175.28;10436565;28;1915;-66
2023/07/31 19:02:22;;;;;;;;;;;;;;;22.30;46.76;95172.44;10473129;28;2037;-66
2023/07/31 19:07:23;;;;;;;;;;;;;;;22.28;47.68;95170.09;10441178;28;1822;-65
2023/07/31 19:12:23;;;;;;;;;;;;;;;22.28;46.85;95180.66;10442088;28;1826;-65
2023/07/31 19:17:23;;;;;;;;;;;;;;;22.24;46.62;95182.34;10442273;28;1877;-66
2023/07/31 19:22:24;;;;;;;;;;;;;;;22.28;47.52;95180.66;10431405;28;1953;-65
2023/07/31 19:27:24;;;;;;;;;;;;;;;22.25;46.88;95188.41;10441510;28;1994;-66
2023/07/31 19:32:25;;;;;;;;;;;;;;;22.21;46.29;95179.53;10439934;28;1857;-65
2023/07/31 19:37:25;;;;;;;;;;;;;;;22.19;46.41;95192.25;10437411;28;2385;-65
2023/07/31 19:42:25;;;;;;;;;;;;;;;22.18;46.23;95196.72;10452048;28;1902;-65
2023/07/31 19:47:25;;;;;;;;;;;;;;;22.16;46.18;95187.53;10444076;28;1905;-63
2023/07/31 19:52:26;;;;;;;;;;;;;;;22.13;45.68;95194.22;10446541;28;1940;-62
2023/07/31 19:57:26;;;;;;;;;;;;;;;22.13;45.84;95198.72;10442554;28;1889;-62
2023/07/31 20:02:26;;;;;;;;;;;;;;;22.12;45.51;95184.72;10443559;28;1973;-63
2023/07/31 20:07:27;;;;;;;;;;;;;;;22.08;45.25;95173.19;10448105;28;1881;-64
2023/07/31 20:12:28;;;;;;;;;;;;;;;22.05;45.18;95168.50;10448780;28;1953;-69
2023/07/31 20:17:29;;;;;;;;;;;;;;;22.04;45.44;95168.78;10450508;28;1897;-66
2023/07/31 20:22:29;;;;;;;;;;;;;;;22.06;45.54;95170.06;10437457;28;1981;-66
2023/07/31 20:27:29;;;;;;;;;;;;;;;22.05;45.35;95157.19;10446059;28;2086;-66
2023/07/31 20:32:30;;;;;;;;;;;;;;;22.04;45.57;95159.03;10448628;28;2223;-66
2023/07/31 20:37:30;;;;;;;;;;;;;;;22.02;45.24;95148.00;10455722;28;4525;-66
2023/07/31 20:42:30;;;;;;;;;;;;;;;21.99;45.13;95132.72;10453678;28;1992;-67
2023/07/31 20:47:30;;;;;;;;;;;;;;;21.98;45.19;95131.19;10450255;28;1949;-67
2023/07/31 20:52:31;;;;;;;;;;;;;;;21.97;44.96;95124.34;10448700;28;2070;-67
2023/07/31 20:57:31;;;;;;;;;;;;;;;21.95;44.86;95126.50;10451818;28;1977;-67
2023/07/31 21:02:31;;;;;;;;;;;;;;;21.94;44.88;95127.59;10451422;28;1990;-67
2023/07/31 21:07:32;;;;;;;;;;;;;;;21.93;44.63;95120.72;10441363;28;2007;-67
2023/07/31 21:12:32;;;;;;;;;;;;;;;21.91;44.64;95104.41;10444770;28;1878;-69
2023/07/31 21:17:32;;;;;;;;;;;;;;;21.89;44.77;95096.00;10449087;28;2104;-67
2023/07/31 21:22:33;;;;;;;;;;;;;;;21.86;44.38;95101.91;10446087;28;1906;-68
2023/07/31 21:27:34;;;;;;;;;;;;;;;21.87;44.57;95084.97;10443159;28;1928;-68
2023/07/31 21:32:35;;;;;;;;;;;;;;;21.86;44.30;95086.06;10445170;28;1874;-68
2023/07/31 21:37:36;;;;;;;;;;;;;;;21.87;44.69;95087.63;10447277;28;4545;-68
2023/07/31 21:42:36;;;;;;;;;;;;;;;21.94;44.72;95092.50;10447302;28;1967;-69
2023/07/31 21:47:37;;;;;;;;;;;;;;;21.96;45.24;95085.84;10445087;28;1863;-69
2023/07/31 21:52:37;;;;;;;;;;;;;;;21.98;45.24;95064.44;10443933;28;2247;-67
2023/07/31 21:57:37;;;;;;;;;;;;;;;22.01;45.32;95064.59;10440742;28;1874;-67
2023/07/31 22:02:38;;;;;;;;;;;;;;;22.03;45.54;95051.13;10443568;28;2124;-69
2023/07/31 22:07:38;;;;;;;;;;;;;;;22.04;45.57;95055.31;10437716;28;1857;-67
2023/07/31 22:12:38;;;;;;;;;;;;;;;22.06;45.70;95055.78;10436508;28;1988;-67
2023/07/31 22:17:39;;;;;;;;;;;;;;;22.05;45.83;95047.09;10439673;28;1932;-68
2023/07/31 22:22:39;;;;;;;;;;;;;;;22.06;45.86;95040.75;10444158;28;1968;-67
2023/07/31 22:27:40;;;;;;;;;;;;;;;22.02;45.50;95037.16;10441811;28;2189;-68
2023/07/31 22:32:43;;;;;;;;;;;;;;;22.03;45.36;95019.47;10444521;28;1971;-67
2023/07/31 22:37:43;;;;;;;;;;;;;;;22.00;45.31;95028.75;10444273;28;4557;-67
2023/07/31 22:42:44;;;;;;;;;;;;;;;21.99;45.30;94994.75;10469202;28;1993;-68
2023/07/31 22:47:45;;;;;;;;;;;;;;;21.99;45.48;95005.31;10441084;28;2142;-67
2023/07/31 22:52:45;;;;;;;;;;;;;;;21.98;45.48;95003.72;10442186;28;2044;-67
2023/07/31 22:57:45;;;;;;;;;;;;;;;21.97;45.75;94992.38;10448862;28;2116;-67
2023/07/31 23:02:45;;;;;;;;;;;;;;;21.98;45.83;94987.91;10445554;28;1980;-67
2023/07/31 23:07:46;;;;;;;;;;;;;;;21.98;46.09;94993.97;10447233;28;1893;-66
2023/07/31 23:12:46;;;;;;;;;;;;;;;21.98;46.47;94982.63;10452190;28;2077;-66
2023/07/31 23:17:47;;;;;;;;;;;;;;;21.97;46.60;94966.00;10443392;28;1965;-66
2023/07/31 23:22:47;;;;;;;;;;;;;;;22.00;46.67;94959.34;10446496;28;2706;-66
2023/07/31 23:27:47;;;;;;;;;;;;;;;22.01;46.94;94956.41;10435307;28;2094;-66
2023/07/31 23:32:47;;;;;;;;;;;;;;;22.03;46.99;94953.47;10445764;28;1913;-66
2023/07/31 23:37:48;;;;;;;;;;;;;;;22.03;46.83;94948.97;10440201;28;4454;-66
2023/07/31 23:42:48;;;;;;;;;;;;;;;22.05;46.94;94949.44;10439750;28;1980;-66
2023/07/31 23:47:48;;;;;;;;;;;;;;;22.03;47.07;94941.03;10442128;28;2126;-67
2023/07/31 23:52:48;;;;;;;;;;;;;;;22.03;46.87;94938.41;10455825;28;1911;-70
2023/07/31 23:57:49;;;;;;;;;;;;;;;22.05;47.03;94930.97;10450805;28;1990;-67
